Aqua Ramon, Colorado
Current Conditions -  °F | °C
As of 2:30 PM on Sunday 23 Nov 2014 (Local Time) from KRCV Reporting Station
Clear Clear  
Wind Chill: 24°   Ceiling: Unl
Heat Index: 35°   Visibility: 10mi
Dew Point:   Wind: 22mph
Humidity: 27%   Direction: 310°NW
Pressure: 29.8"   Gusts: 33mph
Location:  37.6359°N, 106.449°W
Report Text: KRCV 232130Z AUTO 31019G29KT 10SM CLR 02/M16 A2980 RMK AO2 T00171158
Loading
Personal Weather Stations






























Interactive Weather Map New forecast layout! Learn more

10-Day Weather Forecast

Advertisements
Track Severe Weather on mobile